createdAt,value
2018-09-20T00:00:17.903Z,92732.59
2018-09-20T00:02:53.821Z,92732.41
2018-09-20T00:05:29.619Z,92739.80
2018-09-20T00:08:05.400Z,92734.78
2018-09-20T00:10:41.298Z,92735.08
2018-09-20T00:13:20.414Z,92735.39
2018-09-20T00:15:58.049Z,92729.53
2018-09-20T00:18:33.886Z,92728.16
2018-09-20T00:21:09.638Z,92729.33
2018-09-20T00:23:45.253Z,92720.30
2018-09-20T00:26:21.162Z,92723.44
2018-09-20T00:28:57.158Z,92721.53
2018-09-20T00:31:32.906Z,92724.58
2018-09-20T00:34:08.585Z,92721.28
2018-09-20T00:36:44.243Z,92712.48
2018-09-20T00:39:19.950Z,92711.22
2018-09-20T00:41:55.724Z,92707.87
2018-09-20T00:44:31.778Z,92713.95
2018-09-20T00:47:07.583Z,92710.56
2018-09-20T00:49:43.468Z,92712.34
2018-09-20T00:52:19.399Z,92710.70
2018-09-20T00:54:55.226Z,92709.10
2018-09-20T00:57:30.806Z,92717.72
2018-09-20T01:00:07.104Z,92713.89
2018-09-20T01:02:43.069Z,92714.27
2018-09-20T01:05:18.890Z,92711.91
2018-09-20T01:07:54.714Z,92711.34
2018-09-20T01:10:30.470Z,92706.62
2018-09-20T01:13:06.109Z,92703.37
2018-09-20T01:15:42.262Z,92709.39
2018-09-20T01:18:18.027Z,92701.13
2018-09-20T01:20:53.842Z,92700.16
2018-09-20T01:23:29.597Z,92696.81
2018-09-20T01:26:05.292Z,92698.71
2018-09-20T01:28:41.150Z,92697.05
2018-09-20T01:31:17.008Z,92698.17
2018-09-20T01:33:53.898Z,92693.88
2018-09-20T01:36:29.717Z,92694.12
2018-09-20T01:39:10.417Z,92690.01
2018-09-20T01:41:45.989Z,92694.11
2018-09-20T01:44:21.615Z,92697.02
2018-09-20T01:46:57.297Z,92694.95
2018-09-20T01:49:32.920Z,92698.44
2018-09-20T01:52:08.684Z,92701.44
2018-09-20T01:54:44.582Z,92704.91
2018-09-20T01:57:20.280Z,92700.63
2018-09-20T01:59:55.897Z,92704.47
2018-09-20T02:02:31.463Z,92702.62
2018-09-20T02:05:08.082Z,92690.70
2018-09-20T02:07:43.753Z,92698.55
2018-09-20T02:10:20.584Z,92692.47
2018-09-20T02:12:56.363Z,92696.67
2018-09-20T02:15:32.494Z,92695.32
2018-09-20T02:18:08.314Z,92702.88
2018-09-20T02:20:44.283Z,92700.88
2018-09-20T02:23:19.980Z,92694.57
2018-09-20T02:25:55.864Z,92702.31
2018-09-20T02:28:31.701Z,92699.25
2018-09-20T02:31:07.575Z,92693.23
2018-09-20T02:33:43.514Z,92697.95
2018-09-20T02:36:19.269Z,92691.06
2018-09-20T02:38:55.232Z,92701.87
2018-09-20T02:41:31.085Z,92696.19
2018-09-20T02:44:06.852Z,92689.94
2018-09-20T02:46:42.824Z,92694.62
2018-09-20T02:49:18.671Z,92695.72
2018-09-20T02:51:54.424Z,92698.38
2018-09-20T02:54:30.176Z,92701.86
2018-09-20T02:57:06.059Z,92706.00
2018-09-20T02:59:41.663Z,92704.23
2018-09-20T03:02:17.517Z,92717.89
2018-09-20T03:04:53.079Z,92709.14
2018-09-20T03:07:28.997Z,92714.86
2018-09-20T03:10:05.106Z,92715.42
2018-09-20T03:12:40.803Z,92714.18
2018-09-20T03:15:16.521Z,92716.25
2018-09-20T03:17:52.438Z,92712.43
2018-09-20T03:20:28.179Z,92714.83
2018-09-20T03:23:04.045Z,92719.91
2018-09-20T03:25:40.219Z,92718.20
2018-09-20T03:28:16.020Z,92724.14
2018-09-20T03:30:51.867Z,92723.61
2018-09-20T03:33:27.645Z,92725.81
2018-09-20T03:36:03.479Z,92726.19
2018-09-20T03:38:39.367Z,92724.72
2018-09-20T03:41:15.617Z,92733.23
2018-09-20T03:43:51.238Z,92732.29
2018-09-20T03:46:26.955Z,92730.50
2018-09-20T03:49:02.865Z,92729.34
2018-09-20T03:51:38.725Z,92733.47
2018-09-20T03:54:14.593Z,92726.59
2018-09-20T03:56:50.202Z,92735.52
2018-09-20T03:59:26.881Z,92724.61
2018-09-20T04:02:02.594Z,92734.01
2018-09-20T04:04:38.304Z,92734.09
2018-09-20T04:07:13.962Z,92739.23
2018-09-20T04:09:49.747Z,92727.04
2018-09-20T04:12:25.975Z,92731.66
2018-09-20T04:15:02.533Z,92731.13
2018-09-20T04:17:38.929Z,92741.79
2018-09-20T04:20:14.902Z,92730.28
2018-09-20T04:22:50.987Z,92738.59
2018-09-20T04:25:26.890Z,92744.48
2018-09-20T04:28:02.695Z,92742.00
2018-09-20T04:30:38.418Z,92748.22
2018-09-20T04:33:14.259Z,92746.52
2018-09-20T04:35:50.100Z,92755.58
2018-09-20T04:38:25.881Z,92752.19
2018-09-20T04:41:01.683Z,92753.34
2018-09-20T04:43:37.418Z,92759.47
2018-09-20T04:46:13.121Z,92752.03
2018-09-20T04:48:48.945Z,92756.57
2018-09-20T04:51:24.840Z,92758.52
2018-09-20T04:54:00.729Z,92750.92
2018-09-20T04:56:36.381Z,92755.33
2018-09-20T04:59:12.270Z,92756.83
2018-09-20T05:01:48.194Z,92752.41
2018-09-20T05:04:24.122Z,92758.40
2018-09-20T05:06:59.902Z,92761.01
2018-09-20T05:09:35.657Z,92762.66
2018-09-20T05:12:11.723Z,92766.22
2018-09-20T05:14:47.615Z,92766.13
2018-09-20T05:17:23.445Z,92762.23
2018-09-20T05:19:59.309Z,92760.81
2018-09-20T05:22:34.963Z,92761.21
2018-09-20T05:25:14.073Z,92758.80
2018-09-20T05:27:49.921Z,92759.55
2018-09-20T05:30:25.764Z,92759.20
2018-09-20T05:33:01.901Z,92760.23
2018-09-20T05:35:37.678Z,92757.65
2018-09-20T05:38:13.507Z,92754.28
2018-09-20T05:40:51.897Z,92752.81
2018-09-20T05:43:27.863Z,92757.79
2018-09-20T05:46:03.880Z,92749.88
2018-09-20T05:48:39.521Z,92748.20
2018-09-20T05:51:15.303Z,92746.13
2018-09-20T05:53:51.268Z,92740.97
2018-09-20T05:56:27.023Z,92729.48
2018-09-20T05:59:02.816Z,92733.83
2018-09-20T06:01:38.622Z,92728.78
2018-09-20T06:04:14.437Z,92725.34
2018-09-20T06:06:50.680Z,92726.95
2018-09-20T06:09:26.508Z,92720.45
2018-09-20T06:12:02.717Z,92725.50
2018-09-20T06:14:38.740Z,92725.83
2018-09-20T06:17:14.773Z,92729.66
2018-09-20T06:19:53.780Z,92723.61
2018-09-20T06:22:29.581Z,92723.11
2018-09-20T06:25:06.119Z,92728.38
2018-09-20T06:27:41.855Z,92720.08
2018-09-20T06:30:17.842Z,92713.27
2018-09-20T06:32:53.601Z,92712.27
2018-09-20T06:35:30.105Z,92711.02
2018-09-20T06:38:05.831Z,92709.69
2018-09-20T06:40:41.684Z,92705.58
2018-09-20T06:43:17.469Z,92705.97
2018-09-20T06:45:53.843Z,92703.08
2018-09-20T06:48:29.694Z,92713.08
2018-09-20T06:51:05.494Z,92703.95
2018-09-20T06:53:41.178Z,92707.84
2018-09-20T06:57:41.197Z,92700.86
2018-09-20T07:00:17.434Z,92699.49
2018-09-20T07:02:53.325Z,92695.98
2018-09-20T07:05:29.279Z,92695.08
2018-09-20T07:08:05.210Z,92691.27
2018-09-20T07:10:41.065Z,92691.13
2018-09-20T07:13:16.917Z,92686.40
2018-09-20T07:15:52.743Z,92683.25
2018-09-20T07:18:28.676Z,92688.88
2018-09-20T07:21:04.974Z,92676.39
2018-09-20T07:23:40.618Z,92680.42
2018-09-20T07:26:17.128Z,92673.02
2018-09-20T07:28:52.900Z,92680.22
2018-09-20T07:31:28.688Z,92675.30
2018-09-20T07:34:04.624Z,92677.66
2018-09-20T07:36:40.439Z,92677.97
2018-09-20T07:39:16.141Z,92676.82
2018-09-20T07:41:52.782Z,92675.59
2018-09-20T07:44:28.577Z,92674.45
2018-09-20T07:47:04.176Z,92671.38
2018-09-20T07:49:40.176Z,92670.41
2018-09-20T07:52:15.897Z,92663.89
2018-09-20T07:54:51.653Z,92661.15
2018-09-20T07:57:29.644Z,92662.28
2018-09-20T08:00:06.419Z,92661.34
2018-09-20T08:02:42.229Z,92662.42
2018-09-20T08:05:18.092Z,92661.11
2018-09-20T08:07:54.386Z,92662.25
2018-09-20T08:10:30.255Z,92656.79
2018-09-20T08:13:05.973Z,92652.00
2018-09-20T08:15:41.698Z,92643.78
2018-09-20T08:18:17.382Z,92645.78
2018-09-20T08:20:53.185Z,92641.92
2018-09-20T08:23:28.946Z,92638.03
2018-09-20T08:26:04.658Z,92644.48
2018-09-20T08:28:40.364Z,92636.63
2018-09-20T08:31:16.548Z,92625.98
2018-09-20T08:33:55.457Z,92630.58
2018-09-20T08:36:31.304Z,92631.73
2018-09-20T08:39:11.325Z,92624.40
2018-09-20T08:41:47.097Z,92626.64
2018-09-20T08:44:30.369Z,92619.05
2018-09-20T08:47:06.105Z,92605.53
2018-09-20T08:49:41.867Z,92603.58
2018-09-20T08:52:17.696Z,92605.21
2018-09-20T08:54:53.673Z,92597.73
2018-09-20T08:57:32.245Z,92589.72
2018-09-20T09:00:08.412Z,92588.11
2018-09-20T09:02:44.281Z,92585.22
2018-09-20T09:05:20.586Z,92583.10
2018-09-20T09:07:56.347Z,92577.02
2018-09-20T09:10:32.393Z,92576.17
2018-09-20T09:13:08.322Z,92573.73
2018-09-20T09:15:44.172Z,92572.39
2018-09-20T09:18:19.949Z,92573.73
2018-09-20T09:20:55.816Z,92561.44
2018-09-20T09:23:31.557Z,92563.88
2018-09-20T09:26:07.311Z,92556.52
2018-09-20T09:28:43.019Z,92557.97
2018-09-20T09:31:19.038Z,92546.04
2018-09-20T09:33:54.784Z,92552.30
2018-09-20T09:36:30.653Z,92547.03
2018-09-20T09:39:09.438Z,92547.03
2018-09-20T09:41:45.437Z,92541.47
2018-09-20T09:44:21.164Z,92540.14
2018-09-20T09:46:57.006Z,92534.36
2018-09-20T09:49:32.714Z,92526.55
2018-09-20T09:52:08.537Z,92527.10
2018-09-20T09:54:44.388Z,92517.45
2018-09-20T09:57:20.293Z,92521.05
2018-09-20T09:59:55.928Z,92525.55
2018-09-20T10:02:32.176Z,92515.50
2018-09-20T10:05:08.162Z,92509.31
2018-09-20T10:07:44.015Z,92503.55
2018-09-20T10:10:19.686Z,92500.24
2018-09-20T10:12:55.475Z,92500.72
2018-09-20T10:15:31.186Z,92493.20
2018-09-20T10:18:07.026Z,92488.33
2018-09-20T10:20:42.788Z,92484.61
2018-09-20T10:23:18.710Z,92490.42
2018-09-20T10:25:55.514Z,92479.51
2018-09-20T10:28:31.279Z,92482.86
2018-09-20T10:31:07.106Z,92473.78
2018-09-20T10:33:42.956Z,92469.85
2018-09-20T10:36:18.762Z,92466.14
2018-09-20T10:38:49.551Z,92459.82
2018-09-20T10:41:20.595Z,92454.80
2018-09-20T10:43:51.435Z,92446.81
2018-09-20T10:46:22.911Z,92441.70
2018-09-20T10:48:53.889Z,92443.34
2018-09-20T10:51:24.661Z,92444.99
2018-09-20T10:53:55.448Z,92437.88
2018-09-20T10:56:26.202Z,92434.63
2018-09-20T10:58:57.008Z,92433.75
2018-09-20T11:01:27.767Z,92428.38
2018-09-20T11:03:58.677Z,92424.98
2018-09-20T11:06:29.426Z,92423.42
2018-09-20T11:09:00.324Z,92423.54
2018-09-20T11:11:31.092Z,92418.41
2018-09-20T11:14:02.010Z,92419.73
2018-09-20T11:16:32.758Z,92415.98
2018-09-20T11:19:03.541Z,92415.70
2018-09-20T11:21:34.305Z,92402.84
2018-09-20T11:24:05.586Z,92404.55
2018-09-20T11:26:36.329Z,92399.11
2018-09-20T11:29:07.526Z,92400.03
2018-09-20T11:31:38.329Z,92395.39
2018-09-20T11:34:09.221Z,92388.48
2018-09-20T11:36:40.543Z,92386.39
2018-09-20T11:39:13.757Z,92381.81
2018-09-20T11:41:44.506Z,92385.83
2018-09-20T11:44:15.340Z,92382.50
2018-09-20T11:46:46.196Z,92378.06
2018-09-20T11:49:17.194Z,92382.48
2018-09-20T11:51:48.293Z,92375.34
2018-09-20T11:54:19.065Z,92373.17
2018-09-20T11:56:49.813Z,92369.94
2018-09-20T11:59:20.625Z,92367.49
2018-09-20T12:01:51.388Z,92364.05
2018-09-20T12:04:22.242Z,92360.80
2018-09-20T12:06:53.002Z,92364.59
2018-09-20T12:09:23.775Z,92353.73
2018-09-20T12:11:54.548Z,92352.53
2018-09-20T12:14:25.440Z,92348.37
2018-09-20T12:16:56.621Z,92349.63
2018-09-20T12:19:27.425Z,92342.08
2018-09-20T12:21:58.162Z,92342.53
2018-09-20T12:24:29.897Z,92339.77
2018-09-20T12:27:00.645Z,92345.05
2018-09-20T12:29:31.494Z,92339.22
2018-09-20T12:32:02.249Z,92335.31
2018-09-20T12:34:33.061Z,92335.64
2018-09-20T12:37:03.893Z,92323.95
2018-09-20T12:39:34.725Z,92322.00
2018-09-20T12:42:05.491Z,92319.77
2018-09-20T12:44:37.421Z,92320.50
2018-09-20T12:47:08.214Z,92312.77
2018-09-20T12:49:39.528Z,92312.34
2018-09-20T12:52:10.299Z,92304.15
2018-09-20T12:54:41.167Z,92302.77
2018-09-20T12:57:11.989Z,92309.52
2018-09-20T12:59:42.854Z,92301.19
2018-09-20T13:02:13.685Z,92304.72
2018-09-20T13:04:44.745Z,92303.84
2018-09-20T13:07:15.618Z,92302.59
2018-09-20T13:09:46.934Z,92302.56
2018-09-20T13:12:17.913Z,92299.00
2018-09-20T13:14:48.771Z,92299.75
2018-09-20T13:17:19.526Z,92303.87
2018-09-20T13:19:50.325Z,92303.97
2018-09-20T13:22:21.104Z,92304.30
2018-09-20T13:24:51.895Z,92303.34
2018-09-20T13:27:22.651Z,92295.12
2018-09-20T13:29:53.498Z,92291.70
2018-09-20T13:32:24.240Z,92292.40
2018-09-20T13:34:55.003Z,92290.30
2018-09-20T13:37:25.779Z,92288.13
2018-09-20T13:39:56.604Z,92292.22
2018-09-20T13:42:27.968Z,92294.01
2018-09-20T13:47:34.585Z,92289.27
2018-09-20T13:50:05.902Z,92290.05
2018-09-20T13:52:37.102Z,92289.45
2018-09-20T13:55:07.945Z,92290.00
2018-09-20T13:57:39.168Z,92295.96
2018-09-20T14:00:10.248Z,92296.39
2018-09-20T14:02:41.028Z,92288.03
2018-09-20T14:05:11.793Z,92288.06
2018-09-20T14:07:42.604Z,92291.86
2018-09-20T14:10:13.411Z,92286.50
2018-09-20T14:12:44.212Z,92285.80
2018-09-20T14:15:14.938Z,92283.13
2018-09-20T14:17:45.739Z,92288.56
2018-09-20T14:20:16.529Z,92287.92
2018-09-20T14:22:47.297Z,92293.65
2018-09-20T14:25:18.100Z,92296.00
2018-09-20T14:27:48.939Z,92290.73
2018-09-20T14:30:19.726Z,92292.59
2018-09-20T14:32:50.658Z,92294.69
2018-09-20T14:35:21.426Z,92296.89
2018-09-20T14:37:52.232Z,92299.28
2018-09-20T14:40:23.025Z,92300.04
2018-09-20T14:42:53.793Z,92303.95
2018-09-20T14:45:25.706Z,92305.75
2018-09-20T14:47:56.511Z,92312.77
2018-09-20T14:50:27.428Z,92309.67
2018-09-20T14:52:58.230Z,92312.23
2018-09-20T14:55:29.459Z,92310.90
2018-09-20T14:58:00.275Z,92321.84
2018-09-20T15:00:31.026Z,92317.27
2018-09-20T15:03:01.852Z,92316.83
2018-09-20T15:05:32.649Z,92321.14
2018-09-20T15:08:03.460Z,92324.59
2018-09-20T15:10:34.442Z,92323.75
2018-09-20T15:13:05.248Z,92326.87
2018-09-20T15:15:36.018Z,92334.69
2018-09-20T15:18:06.832Z,92329.46
2018-09-20T15:20:37.606Z,92338.37
2018-09-20T15:23:08.424Z,92339.05
2018-09-20T15:25:39.197Z,92337.99
2018-09-20T15:28:10.033Z,92341.19
2018-09-20T15:30:40.822Z,92341.39
2018-09-20T15:33:11.614Z,92349.35
2018-09-20T15:35:42.357Z,92352.12
2018-09-20T15:38:13.151Z,92355.19
2018-09-20T15:40:43.919Z,92360.02
2018-09-20T15:43:14.691Z,92357.97
2018-09-20T15:45:45.470Z,92362.51
2018-09-20T15:48:16.268Z,92362.37
2018-09-20T15:50:47.141Z,92362.09
2018-09-20T15:53:17.921Z,92364.33
2018-09-20T15:55:48.682Z,92363.65
2018-09-20T15:58:19.453Z,92366.95
2018-09-20T16:00:50.257Z,92376.75
2018-09-20T16:03:21.214Z,92383.88
2018-09-20T16:05:58.189Z,92388.38
2018-09-20T16:09:54.082Z,92398.34
2018-09-20T16:12:25.297Z,92396.70
2018-09-20T16:14:56.123Z,92403.34
2018-09-20T16:17:26.873Z,92401.37
2018-09-20T16:19:57.671Z,92405.75
2018-09-20T16:22:28.446Z,92407.75
2018-09-20T16:27:35.127Z,92410.20
2018-09-20T16:30:23.972Z,92417.02
2018-09-20T16:35:16.004Z,92417.64
2018-09-20T16:39:58.254Z,92424.31
2018-09-20T16:42:34.222Z,92431.16
2018-09-20T16:45:05.514Z,92431.45
2018-09-20T16:47:41.945Z,92436.58
2018-09-20T16:50:12.797Z,92437.31
2018-09-20T16:52:46.244Z,92441.84
2018-09-20T16:55:17.050Z,92455.39
2018-09-20T16:57:47.800Z,92449.61
2018-09-20T17:01:06.069Z,92458.55
2018-09-20T17:03:36.884Z,92472.69
2018-09-20T17:06:08.445Z,92463.78
2018-09-20T17:08:39.201Z,92473.28
2018-09-20T17:11:10.001Z,92472.67
2018-09-20T17:13:40.794Z,92480.30
2018-09-20T17:16:11.679Z,92478.50
2018-09-20T17:18:42.685Z,92488.42
2018-09-20T17:21:13.734Z,92489.45
2018-09-20T17:23:44.511Z,92498.45
2018-09-20T17:26:15.530Z,92494.31
2018-09-20T17:28:46.299Z,92499.38
2018-09-20T17:31:17.112Z,92509.52
2018-09-20T17:33:48.125Z,92513.43
2018-09-20T17:36:20.116Z,92521.78
2018-09-20T17:38:54.507Z,92529.98
2018-09-20T17:41:28.290Z,92523.55
2018-09-20T17:44:01.919Z,92528.95
2018-09-20T17:46:32.720Z,92537.76
2018-09-20T17:49:03.514Z,92539.63
2018-09-20T17:51:35.128Z,92545.45
2018-09-20T17:54:06.593Z,92543.77
2018-09-20T17:56:38.343Z,92550.78
2018-09-20T17:59:09.104Z,92558.66
2018-09-20T18:01:39.909Z,92560.13
2018-09-20T18:04:10.671Z,92563.43
2018-09-20T18:06:41.500Z,92567.41
2018-09-20T18:09:12.224Z,92571.86
2018-09-20T18:11:43.435Z,92568.83
2018-09-20T18:14:14.212Z,92577.50
2018-09-20T18:16:45.030Z,92577.05
2018-09-20T18:19:16.195Z,92580.30
2018-09-20T18:21:47.608Z,92585.64
2018-09-20T18:24:18.431Z,92584.86
2018-09-20T18:26:49.499Z,92590.94
2018-09-20T18:29:21.143Z,92591.45
2018-09-20T18:31:51.978Z,92595.91
2018-09-20T18:34:22.774Z,92593.45
2018-09-20T18:36:53.792Z,92596.23
2018-09-20T18:39:24.618Z,92600.95
2018-09-20T18:41:56.154Z,92602.20
2018-09-20T18:44:27.238Z,92597.64
2018-09-20T18:46:58.053Z,92599.82
2018-09-20T18:49:28.908Z,92600.36
2018-09-20T18:51:59.814Z,92602.06
2018-09-20T18:54:30.653Z,92606.94
2018-09-20T18:57:01.459Z,92606.05
2018-09-20T18:59:32.253Z,92607.59
2018-09-20T19:02:03.045Z,92607.24
2018-09-20T19:04:33.801Z,92608.44
2018-09-20T19:07:04.680Z,92609.73
2018-09-20T19:09:41.673Z,92612.12
2018-09-20T19:12:12.757Z,92604.09
2018-09-20T19:14:44.231Z,92608.69
2018-09-20T19:17:15.046Z,92609.20
2018-09-20T19:19:46.029Z,92600.11
2018-09-20T19:22:20.962Z,92604.62
2018-09-20T19:24:55.179Z,92606.55
2018-09-20T19:27:32.371Z,92605.23
2018-09-20T19:30:10.517Z,92605.70
2018-09-20T19:32:46.438Z,92600.22
2018-09-20T19:35:21.802Z,92602.42
2018-09-20T19:37:58.421Z,92602.83
2018-09-20T19:40:34.124Z,92606.83
2018-09-20T19:43:09.985Z,92603.26
2018-09-20T19:45:45.816Z,92610.57
2018-09-20T19:48:24.506Z,92604.53
2018-09-20T19:51:06.584Z,92601.00
2018-09-20T19:53:50.287Z,92601.26
2018-09-20T19:56:23.051Z,92601.89
2018-09-20T19:58:58.909Z,92612.05
2018-09-20T20:01:34.614Z,92612.41
2018-09-20T20:04:10.549Z,92614.44
2018-09-20T20:06:46.243Z,92609.05
2018-09-20T20:09:22.087Z,92608.66
2018-09-20T20:11:57.941Z,92608.90
2018-09-20T20:14:33.791Z,92610.34
2018-09-20T20:17:09.586Z,92608.63
2018-09-20T20:19:45.410Z,92605.52
2018-09-20T20:22:21.394Z,92610.72
2018-09-20T20:24:57.221Z,92616.67
2018-09-20T20:27:33.334Z,92623.98
2018-09-20T20:30:09.263Z,92622.98
2018-09-20T20:32:48.543Z,92624.50
2018-09-20T20:35:24.451Z,92621.99
2018-09-20T20:38:00.350Z,92625.30
2018-09-20T20:40:36.620Z,92622.67
2018-09-20T20:43:12.337Z,92618.70
2018-09-20T20:45:48.435Z,92618.64
2018-09-20T20:48:24.109Z,92619.88
2018-09-20T20:50:59.760Z,92615.61
2018-09-20T20:53:35.631Z,92623.86
2018-09-20T20:56:11.351Z,92620.66
2018-09-20T20:58:47.243Z,92619.23
2018-09-20T21:01:23.694Z,92624.66
2018-09-20T21:03:59.454Z,92626.41
2018-09-20T21:06:35.297Z,92634.80
2018-09-20T21:09:11.287Z,92633.59
2018-09-20T21:11:47.609Z,92634.00
2018-09-20T21:14:23.442Z,92632.65
2018-09-20T21:16:59.448Z,92632.70
2018-09-20T21:19:35.197Z,92631.70
2018-09-20T21:22:11.064Z,92627.31
2018-09-20T21:24:46.901Z,92634.59
2018-09-20T21:27:22.879Z,92628.53
2018-09-20T21:29:59.121Z,92622.94
2018-09-20T21:32:35.166Z,92627.09
2018-09-20T21:35:10.777Z,92615.93
2018-09-20T21:37:46.451Z,92623.87
2018-09-20T21:40:22.120Z,92629.39
2018-09-20T21:42:57.865Z,92627.66
2018-09-20T21:45:33.727Z,92627.26
2018-09-20T21:48:09.508Z,92624.78
2018-09-20T21:50:45.170Z,92629.86
2018-09-20T21:53:21.321Z,92633.18
2018-09-20T21:55:57.037Z,92626.12
2018-09-20T21:58:32.896Z,92630.48
2018-09-20T22:01:13.168Z,92629.38
2018-09-20T22:03:48.865Z,92624.70
2018-09-20T22:13:29.345Z,92625.55
2018-09-20T22:16:05.225Z,92619.53
2018-09-20T22:20:05.192Z,92625.00
2018-09-20T22:22:41.274Z,92620.58
2018-09-20T22:25:17.141Z,92613.77
2018-09-20T22:27:53.061Z,92608.70
2018-09-20T22:30:29.293Z,92613.61
2018-09-20T22:33:05.486Z,92609.89
2018-09-20T22:35:42.463Z,92608.31
2018-09-20T22:38:19.019Z,92607.10
2018-09-20T22:40:55.932Z,92607.51
2018-09-20T22:43:32.667Z,92615.74
2018-09-20T22:46:09.548Z,92612.86
2018-09-20T22:48:46.593Z,92607.59
2018-09-20T22:51:22.794Z,92605.63
2018-09-20T22:53:59.138Z,92603.32
2018-09-20T22:56:35.609Z,92594.53
2018-09-20T22:59:11.782Z,92602.72
2018-09-20T23:03:11.763Z,92602.59
2018-09-20T23:05:47.597Z,92599.48
2018-09-20T23:08:23.466Z,92595.16
2018-09-20T23:10:59.026Z,92594.36
2018-09-20T23:13:34.664Z,92590.05
2018-09-20T23:16:10.554Z,92582.98
2018-09-20T23:18:46.784Z,92591.36
2018-09-20T23:21:22.591Z,92587.06
2018-09-20T23:23:58.432Z,92591.98
2018-09-20T23:26:34.126Z,92588.58
2018-09-20T23:29:10.014Z,92589.75
2018-09-20T23:31:45.732Z,92589.03
2018-09-20T23:34:21.612Z,92585.93
2018-09-20T23:36:57.427Z,92589.56
2018-09-20T23:39:33.295Z,92589.51
2018-09-20T23:42:09.013Z,92590.31
2018-09-20T23:44:44.729Z,92583.31
2018-09-20T23:47:20.559Z,92584.75
2018-09-20T23:49:56.474Z,92589.41
2018-09-20T23:52:32.380Z,92591.38
2018-09-20T23:55:08.232Z,92594.55
2018-09-20T23:57:43.953Z,92595.56
